createdAt,value
2022-10-18T00:01:16.087Z,998.8
2022-10-18T00:02:41.059Z,998.8
2022-10-18T00:03:47.479Z,998.8
2022-10-18T00:05:12.415Z,998.8
2022-10-18T00:06:38.655Z,998.8
2022-10-18T00:08:02.342Z,998.8
2022-10-18T00:09:27.275Z,998.8
2022-10-18T00:10:52.222Z,998.8
2022-10-18T00:11:58.633Z,998.8
2022-10-18T00:16:24.369Z,998.9
2022-10-18T00:17:30.939Z,998.9
2022-10-18T00:18:37.194Z,998.9
2022-10-18T00:19:43.618Z,998.9
2022-10-18T00:20:50.097Z,998.9
2022-10-18T00:21:56.458Z,998.9
2022-10-18T00:24:09.300Z,998.9
2022-10-18T00:25:15.745Z,998.9
2022-10-18T00:26:59.176Z,998.9
2022-10-18T00:28:24.161Z,998.9
2022-10-18T00:30:07.585Z,998.9
2022-10-18T00:32:28.361Z,998.9
2022-10-18T00:33:53.364Z,998.9
2022-10-18T00:35:18.327Z,998.9
2022-10-18T00:37:01.789Z,998.9
2022-10-18T00:38:45.292Z,998.9
2022-10-18T00:40:28.744Z,998.9
2022-10-18T00:42:12.241Z,998.9
2022-10-18T00:43:55.697Z,998.9
2022-10-18T00:45:20.614Z,998.8
2022-10-18T00:46:45.577Z,998.8
2022-10-18T00:48:10.562Z,998.8
2022-10-18T00:49:35.491Z,998.8
2022-10-18T00:51:18.954Z,998.8
2022-10-18T00:52:25.857Z,998.8
2022-10-18T00:53:50.810Z,998.8
2022-10-18T00:55:15.761Z,998.8
2022-10-18T00:56:59.267Z,998.8
2022-10-18T00:58:24.173Z,998.8
2022-10-18T01:02:02.033Z,998.8
2022-10-18T01:03:08.371Z,998.8
2022-10-18T01:04:14.833Z,998.8
2022-10-18T01:05:21.233Z,998.8
2022-10-18T01:06:27.699Z,998.8
2022-10-18T01:08:40.537Z,998.8
2022-10-18T01:09:46.940Z,998.8
2022-10-18T01:11:59.787Z,998.8
2022-10-18T01:13:06.208Z,998.8
2022-10-18T01:15:19.308Z,998.8
2022-10-18T01:17:02.746Z,998.8
2022-10-18T01:18:09.175Z,998.8
2022-10-18T01:19:34.137Z,998.8
2022-10-18T01:20:59.082Z,998.8
2022-10-18T01:24:07.496Z,998.8
2022-10-18T01:25:13.928Z,998.8
2022-10-18T01:26:57.394Z,998.8
2022-10-18T01:28:03.820Z,998.8
2022-10-18T01:29:28.757Z,998.8
2022-10-18T01:30:53.738Z,998.8
2022-10-18T01:32:18.671Z,998.8
2022-10-18T01:35:08.591Z,998.8
2022-10-18T01:36:33.506Z,998.8
2022-10-18T01:38:16.995Z,998.8
2022-10-18T01:39:41.943Z,998.8
2022-10-18T01:41:08.730Z,998.8
2022-10-18T01:42:13.325Z,998.8
2022-10-18T01:43:38.280Z,998.8
2022-10-18T01:45:03.216Z,998.8
2022-10-18T01:48:12.293Z,998.9
2022-10-18T01:49:18.716Z,998.9
2022-10-18T01:51:02.207Z,998.9
2022-10-18T01:53:33.549Z,998.9
2022-10-18T01:55:17.025Z,998.9
2022-10-18T01:56:23.453Z,998.9
2022-10-18T01:59:31.885Z,998.9
2022-10-18T02:00:56.829Z,998.9
2022-10-18T02:02:40.282Z,998.9
2022-10-18T02:04:23.770Z,998.9
2022-10-18T02:06:44.511Z,998.9
2022-10-18T02:07:55.242Z,998.9
2022-10-18T02:09:52.902Z,998.9
2022-10-18T02:13:20.266Z,998.9
2022-10-18T02:14:45.229Z,998.9
2022-10-18T02:16:28.698Z,998.9
2022-10-18T02:18:12.153Z,998.8
2022-10-18T02:19:55.644Z,998.8
2022-10-18T02:21:39.125Z,998.8
2022-10-18T02:23:41.136Z,998.8
2022-10-18T02:25:24.593Z,998.8
2022-10-18T02:26:49.535Z,998.8
2022-10-18T02:28:51.543Z,998.8
2022-10-18T02:30:35.026Z,998.8
2022-10-18T02:31:59.977Z,998.8
2022-10-18T02:34:01.952Z,998.8
2022-10-18T02:35:45.456Z,998.8
2022-10-18T02:37:10.392Z,998.8
2022-10-18T02:38:35.322Z,998.9
2022-10-18T02:40:18.821Z,998.9
2022-10-18T02:41:43.749Z,998.9
2022-10-18T02:43:08.686Z,998.9
2022-10-18T02:44:15.124Z,998.9
2022-10-18T02:45:40.087Z,998.9
2022-10-18T02:47:05.014Z,998.9
2022-10-18T02:48:29.992Z,998.9
2022-10-18T02:50:13.445Z,998.9
2022-10-18T02:52:44.791Z,998.9
2022-10-18T02:53:51.293Z,998.9
2022-10-18T02:54:57.644Z,998.9
2022-10-18T02:56:04.098Z,998.9
2022-10-18T02:58:16.920Z,998.9
2022-10-18T02:59:23.355Z,998.9
2022-10-18T03:00:29.774Z,998.9
2022-10-18T03:01:36.344Z,998.9
2022-10-18T03:04:55.728Z,998.9
2022-10-18T03:06:02.173Z,998.9
2022-10-18T03:07:45.606Z,998.9
2022-10-18T03:08:52.047Z,998.9
2022-10-18T03:10:35.508Z,998.9
2022-10-18T03:11:41.967Z,998.9
2022-10-18T03:13:25.458Z,999
2022-10-18T03:14:31.890Z,999
2022-10-18T03:17:40.342Z,999
2022-10-18T03:19:05.291Z,999
2022-10-18T03:20:11.717Z,999
2022-10-18T03:21:36.673Z,999
2022-10-18T03:23:01.622Z,999
2022-10-18T03:24:45.106Z,999
2022-10-18T03:27:35.184Z,999
2022-10-18T03:29:00.024Z,999
2022-10-18T03:30:43.409Z,999
2022-10-18T03:32:45.428Z,999
2022-10-18T03:34:10.380Z,999
2022-10-18T03:35:54.123Z,999
2022-10-18T03:37:37.506Z,999
2022-10-18T03:39:21.347Z,999
2022-10-18T03:40:46.279Z,999
2022-10-18T03:42:48.298Z,999
2022-10-18T03:44:13.202Z,999
2022-10-18T03:45:38.173Z,999
2022-10-18T03:47:21.627Z,999
2022-10-18T03:48:46.567Z,999
2022-10-18T03:50:11.526Z,999
2022-10-18T03:51:36.491Z,999
2022-10-18T03:54:08.028Z,999
2022-10-18T03:55:51.491Z,999
2022-10-18T03:56:57.922Z,999
2022-10-18T03:58:22.959Z,999
2022-10-18T04:01:12.827Z,998.9
2022-10-18T04:02:37.694Z,998.9
2022-10-18T04:04:21.185Z,998.9
2022-10-18T04:06:23.160Z,998.8
2022-10-18T04:07:48.143Z,998.8
2022-10-18T04:09:31.602Z,998.8
2022-10-18T04:11:15.078Z,998.8
2022-10-18T04:12:58.642Z,998.9
2022-10-18T04:15:19.108Z,998.9
2022-10-18T04:16:25.530Z,998.9
2022-10-18T04:18:46.015Z,998.9
2022-10-18T04:20:10.949Z,998.9
2022-10-18T04:21:36.235Z,998.9
2022-10-18T04:23:19.722Z,998.9
2022-10-18T04:24:26.157Z,998.9
2022-10-18T04:25:51.110Z,998.9
2022-10-18T04:27:34.863Z,998.9
2022-10-18T04:28:41.042Z,998.9
2022-10-18T04:30:05.972Z,998.9
2022-10-18T04:31:30.900Z,998.9
2022-10-18T04:32:55.860Z,998.9
2022-10-18T04:34:20.813Z,998.9
2022-10-18T04:36:33.686Z,998.9
2022-10-18T04:37:40.056Z,998.9
2022-10-18T04:39:23.588Z,998.9
2022-10-18T04:40:48.437Z,998.9
2022-10-18T04:42:31.917Z,999
2022-10-18T04:44:15.420Z,999
2022-10-18T04:45:58.864Z,999
2022-10-18T04:48:19.395Z,999
2022-10-18T04:49:25.861Z,999
2022-10-18T04:51:46.374Z,999
2022-10-18T04:52:52.777Z,999
2022-10-18T04:55:13.283Z,999
2022-10-18T04:56:38.258Z,999
2022-10-18T04:58:21.694Z,999
2022-10-18T04:59:46.651Z,999
2022-10-18T05:01:11.682Z,998.9
2022-10-18T05:02:18.022Z,998.9
2022-10-18T05:03:42.960Z,998.9
2022-10-18T05:05:09.172Z,998.8
2022-10-18T05:07:57.820Z,998.8
2022-10-18T05:09:22.780Z,998.8
2022-10-18T05:10:47.715Z,998.7
2022-10-18T05:13:56.140Z,998.7
2022-10-18T05:15:58.124Z,998.7
2022-10-18T05:17:04.955Z,998.7
2022-10-18T05:20:50.469Z,998.8
2022-10-18T05:22:15.386Z,998.8
2022-10-18T05:23:58.870Z,998.8
2022-10-18T05:25:42.339Z,998.8
2022-10-18T05:29:09.352Z,998.8
2022-10-18T05:30:52.815Z,998.7
2022-10-18T05:32:54.757Z,998.7
2022-10-18T05:34:56.757Z,998.7
2022-10-18T05:36:21.740Z,998.7
2022-10-18T05:39:30.142Z,998.7
2022-10-18T05:41:13.587Z,998.7
2022-10-18T05:42:57.152Z,998.7
2022-10-18T05:46:24.026Z,998.6
2022-10-18T05:48:07.839Z,998.6
2022-10-18T05:50:28.349Z,998.6
2022-10-18T05:51:53.309Z,998.5
2022-10-18T05:53:35.543Z,998.5
2022-10-18T05:55:01.762Z,998.4
2022-10-18T05:56:45.191Z,998.4
2022-10-18T05:58:28.671Z,998.2
2022-10-18T06:00:30.682Z,998.2
2022-10-18T06:01:55.643Z,998.1
2022-10-18T06:03:57.630Z,998.2
2022-10-18T06:05:22.570Z,998.2
2022-10-18T06:07:24.621Z,998.2
2022-10-18T06:08:49.529Z,998.2
2022-10-18T06:10:32.976Z,998.3
2022-10-18T06:12:16.455Z,998.3
2022-10-18T06:13:59.922Z,998.3
2022-10-18T06:15:43.407Z,998.4
2022-10-18T06:17:08.361Z,998.4
2022-10-18T06:19:39.740Z,998.4
2022-10-18T06:21:04.683Z,998.4
2022-10-18T06:22:29.639Z,998.3
2022-10-18T06:23:54.593Z,998.3
2022-10-18T06:25:19.529Z,998.3
2022-10-18T06:27:03.025Z,998.2
2022-10-18T06:29:34.381Z,998.3
2022-10-18T06:30:59.340Z,998.3
2022-10-18T06:32:24.700Z,998.3
2022-10-18T06:34:26.671Z,998.3
2022-10-18T06:36:10.122Z,998.4
2022-10-18T06:37:35.524Z,998.4
2022-10-18T06:39:18.549Z,998.4
2022-10-18T06:41:02.036Z,998.5
2022-10-18T06:42:50.899Z,998.5
2022-10-18T06:46:12.451Z,998.5
2022-10-18T06:47:55.922Z,998.5
2022-10-18T06:49:39.396Z,998.5
2022-10-18T06:51:22.869Z,998.5
2022-10-18T06:54:49.927Z,998.4
2022-10-18T06:56:33.286Z,998.4
2022-10-18T06:58:53.855Z,998.4
2022-10-18T07:00:18.865Z,998.4
2022-10-18T07:01:43.830Z,998.4
2022-10-18T07:03:27.563Z,998.4
2022-10-18T07:05:11.040Z,998.4
2022-10-18T07:07:13.049Z,998.4
2022-10-18T07:08:37.985Z,998.4
2022-10-18T07:10:58.580Z,998.4
2022-10-18T07:12:04.937Z,998.4
2022-10-18T07:13:48.413Z,998.4
2022-10-18T07:15:34.932Z,998.4
2022-10-18T07:17:15.358Z,998.4
2022-10-18T07:19:35.877Z,998.4
2022-10-18T07:20:42.307Z,998.4
2022-10-18T07:22:07.228Z,998.5
2022-10-18T07:23:32.179Z,998.5
2022-10-18T07:24:57.129Z,998.5
2022-10-18T07:26:41.164Z,998.4
2022-10-18T07:27:47.547Z,998.4
2022-10-18T07:29:12.508Z,998.4
2022-10-18T07:30:37.470Z,998.4
2022-10-18T07:32:20.975Z,998.4
2022-10-18T07:33:27.352Z,998.4
2022-10-18T07:34:52.315Z,998.4
2022-10-18T07:36:17.252Z,998.4
2022-10-18T07:37:25.451Z,998.5
2022-10-18T07:38:30.089Z,998.5
2022-10-18T07:40:43.046Z,998.4
2022-10-18T07:41:49.511Z,998.4
2022-10-18T07:42:55.880Z,998.4
2022-10-18T07:44:02.315Z,998.4
2022-10-18T07:45:08.750Z,998.4
2022-10-18T07:46:15.164Z,998.4
2022-10-18T07:47:21.600Z,998.4
2022-10-18T07:48:28.008Z,998.4
2022-10-18T07:49:34.461Z,998.4
2022-10-18T07:50:40.866Z,998.4
2022-10-18T07:51:47.295Z,998.4
2022-10-18T07:55:06.575Z,998.3
2022-10-18T07:56:31.492Z,998.3
2022-10-18T07:57:56.478Z,998.4
2022-10-18T07:59:21.390Z,998.4
2022-10-18T08:00:46.342Z,998.4
2022-10-18T08:02:11.285Z,998.3
2022-10-18T08:03:36.244Z,998.3
2022-10-18T08:05:01.195Z,998.3
2022-10-18T08:06:26.212Z,998.3
2022-10-18T08:07:51.103Z,998.3
2022-10-18T08:09:16.067Z,998.4
2022-10-18T08:10:40.981Z,998.4
2022-10-18T08:12:53.839Z,998.4
2022-10-18T08:14:00.282Z,998.4
2022-10-18T08:15:06.680Z,998.4
2022-10-18T08:16:13.109Z,998.4
2022-10-18T08:17:19.517Z,998.3
2022-10-18T08:18:25.964Z,998.3
2022-10-18T08:19:58.250Z,998.3
2022-10-18T08:20:57.314Z,998.2
2022-10-18T08:22:03.731Z,998.2
2022-10-18T08:23:10.150Z,998.2
2022-10-18T08:25:23.054Z,998.1
2022-10-18T08:26:47.944Z,998.1
2022-10-18T08:28:12.906Z,998
2022-10-18T08:29:37.907Z,998
2022-10-18T08:31:02.793Z,997.9
2022-10-18T08:32:27.765Z,997.9
2022-10-18T08:34:12.952Z,997.8
2022-10-18T08:35:36.186Z,997.8
2022-10-18T08:36:42.586Z,997.8
2022-10-18T08:39:51.238Z,997.8
2022-10-18T08:40:57.669Z,997.8
2022-10-18T08:42:41.149Z,997.8
2022-10-18T08:44:07.080Z,997.8
2022-10-18T08:45:41.760Z,997.7
2022-10-18T08:46:37.464Z,997.7
2022-10-18T08:48:02.425Z,997.7
2022-10-18T08:49:27.362Z,997.7
2022-10-18T08:52:17.266Z,997.7
2022-10-18T08:53:42.196Z,997.7
2022-10-18T08:55:26.062Z,997.7
2022-10-18T08:57:09.545Z,997.8
2022-10-18T08:58:53.022Z,997.7
2022-10-18T09:00:36.539Z,997.7
2022-10-18T09:02:20.043Z,997.7
2022-10-18T09:04:21.991Z,997.7
2022-10-18T09:05:46.939Z,997.7
2022-10-18T09:07:30.413Z,997.6
2022-10-18T09:09:32.405Z,997.6
2022-10-18T09:12:22.274Z,997.5
2022-10-18T09:13:47.245Z,997.5
2022-10-18T09:15:12.172Z,997.5
2022-10-18T09:16:37.232Z,997.5
2022-10-18T09:18:02.105Z,997.5
2022-10-18T09:19:27.549Z,997.4
2022-10-18T09:22:17.977Z,997.4
2022-10-18T09:23:42.928Z,997.4
2022-10-18T09:25:07.864Z,997.4
2022-10-18T09:26:32.812Z,997.3
2022-10-18T09:28:16.309Z,997.3
2022-10-18T09:29:22.727Z,997.3
2022-10-18T09:30:47.756Z,997.3
2022-10-18T09:32:31.513Z,997.3
2022-10-18T09:33:37.581Z,997.3
2022-10-18T09:35:02.504Z,997.3
2022-10-18T09:36:27.469Z,997.3
2022-10-18T09:37:52.409Z,997.3
2022-10-18T09:39:17.360Z,997.3
2022-10-18T09:41:48.703Z,997.3
2022-10-18T09:43:32.171Z,997.3
2022-10-18T09:44:57.114Z,997.2
2022-10-18T09:46:40.594Z,997.2
2022-10-18T09:48:24.113Z,997.2
2022-10-18T09:50:07.553Z,997.2
2022-10-18T09:51:51.021Z,997.2
2022-10-18T09:53:34.497Z,997.2
2022-10-18T09:55:17.962Z,997.1
2022-10-18T09:57:01.470Z,997.1
2022-10-18T09:58:44.922Z,997.1
2022-10-18T10:00:28.376Z,997.1
2022-10-18T10:01:34.781Z,997.1
2022-10-18T10:02:59.950Z,997.1
2022-10-18T10:04:43.241Z,997.1
2022-10-18T10:05:49.645Z,997.1
2022-10-18T10:07:14.774Z,997.1
2022-10-18T10:08:39.538Z,997.1
2022-10-18T10:10:04.575Z,997.1
2022-10-18T10:11:29.448Z,997.1
2022-10-18T10:12:54.408Z,997.1
2022-10-18T10:14:19.627Z,997.1
2022-10-18T10:15:27.059Z,997
2022-10-18T10:16:32.440Z,997
2022-10-18T10:17:38.854Z,997
2022-10-18T10:18:45.294Z,997
2022-10-18T10:19:51.729Z,997
2022-10-18T10:20:58.120Z,997
2022-10-18T10:22:04.552Z,997
2022-10-18T10:23:11.037Z,997
2022-10-18T10:24:17.393Z,997
2022-10-18T10:25:23.830Z,997
2022-10-18T10:26:30.257Z,997
2022-10-18T10:27:36.682Z,997
2022-10-18T10:28:43.159Z,997
2022-10-18T10:29:49.607Z,997
2022-10-18T10:30:55.974Z,997
2022-10-18T10:32:02.383Z,997
2022-10-18T10:33:09.264Z,997
2022-10-18T10:34:15.700Z,997
2022-10-18T10:35:28.556Z,997
2022-10-18T10:37:35.435Z,997.1
2022-10-18T10:38:41.390Z,997.1
2022-10-18T10:39:55.403Z,997.1
2022-10-18T10:40:54.236Z,997.1
2022-10-18T10:42:00.663Z,997.2
2022-10-18T10:43:13.157Z,997.2
2022-10-18T10:44:13.509Z,997.4
2022-10-18T10:45:19.982Z,997.5
2022-10-18T10:47:32.792Z,997.5
2022-10-18T10:48:39.206Z,997.6
2022-10-18T10:49:45.621Z,997.7
2022-10-18T10:50:53.146Z,997.8
2022-10-18T10:52:02.589Z,997.9
2022-10-18T10:53:04.901Z,998
2022-10-18T10:54:11.343Z,998
2022-10-18T10:55:33.926Z,998.1
2022-10-18T10:56:24.189Z,998.1
2022-10-18T10:57:30.617Z,998.1
2022-10-18T10:58:37.270Z,998.2
2022-10-18T10:59:43.705Z,998.2
2022-10-18T11:00:50.118Z,998.2
2022-10-18T11:01:56.537Z,998.2
2022-10-18T11:03:05.822Z,998.2
2022-10-18T11:04:09.424Z,998.2
2022-10-18T11:05:15.810Z,998.2
2022-10-18T11:06:22.276Z,998.2
2022-10-18T11:07:28.653Z,998.2
2022-10-18T11:08:35.134Z,998.2
2022-10-18T11:09:41.527Z,998.2
2022-10-18T11:10:47.945Z,998.2
2022-10-18T11:11:54.378Z,998.1
2022-10-18T11:13:00.805Z,998.2
2022-10-18T11:14:24.520Z,998.2
2022-10-18T11:15:13.640Z,998.2
2022-10-18T11:16:20.068Z,998.2
2022-10-18T11:17:26.503Z,998.2
2022-10-18T11:18:33.457Z,998.2
2022-10-18T11:19:39.888Z,998.2
2022-10-18T11:20:46.281Z,998.2
2022-10-18T11:21:52.753Z,998.2
2022-10-18T11:22:59.173Z,998.2
2022-10-18T11:24:05.557Z,998.2
2022-10-18T11:26:18.410Z,998.2
2022-10-18T11:27:24.902Z,998.3
2022-10-18T11:28:31.342Z,998.3
2022-10-18T11:29:37.700Z,998.3
2022-10-18T11:30:44.114Z,998.3
2022-10-18T11:31:50.545Z,998.3
2022-10-18T11:32:56.974Z,998.3
2022-10-18T11:34:09.088Z,998.3
2022-10-18T11:35:09.816Z,998.3
2022-10-18T11:36:16.344Z,998.3
2022-10-18T11:37:28.409Z,998.3
2022-10-18T11:38:29.169Z,998.3
2022-10-18T11:39:35.599Z,998.3
2022-10-18T11:40:42.023Z,998.3
2022-10-18T11:41:48.455Z,998.3
2022-10-18T11:42:54.883Z,998.3
2022-10-18T11:44:02.899Z,998.3
2022-10-18T11:45:07.729Z,998.3
2022-10-18T11:46:14.163Z,998.4
2022-10-18T11:47:20.685Z,998.4
2022-10-18T11:48:26.997Z,998.4
2022-10-18T11:49:33.438Z,998.4
2022-10-18T11:50:39.864Z,998.4
2022-10-18T11:52:03.511Z,998.4
2022-10-18T11:53:59.152Z,998.4
2022-10-18T11:55:06.001Z,998.4
2022-10-18T11:56:12.413Z,998.4
2022-10-18T11:57:18.844Z,998.4
2022-10-18T11:58:25.267Z,998.5
2022-10-18T11:59:31.704Z,998.5
2022-10-18T12:00:38.116Z,998.5
2022-10-18T12:01:44.556Z,998.4
2022-10-18T12:02:50.989Z,998.5
2022-10-18T12:03:57.373Z,998.5
2022-10-18T12:05:23.365Z,998.5
2022-10-18T12:06:10.241Z,998.5
2022-10-18T12:07:18.764Z,998.5
2022-10-18T12:09:29.547Z,998.4
2022-10-18T12:10:52.977Z,998.4
2022-10-18T12:11:45.377Z,998.5
2022-10-18T12:12:48.783Z,998.5
2022-10-18T12:13:55.235Z,998.5
2022-10-18T12:15:01.644Z,998.5
2022-10-18T12:16:08.087Z,998.5
2022-10-18T12:17:40.129Z,998.5
2022-10-18T12:18:20.904Z,998.5
2022-10-18T12:19:27.547Z,998.5
2022-10-18T12:20:34.029Z,998.6
2022-10-18T12:21:58.925Z,998.6
2022-10-18T12:24:30.282Z,998.6
2022-10-18T12:25:55.242Z,998.6
2022-10-18T12:27:20.175Z,998.6
2022-10-18T12:28:45.210Z,998.6
2022-10-18T12:30:10.078Z,998.6
2022-10-18T12:31:35.022Z,998.6
2022-10-18T12:33:03.628Z,998.7
2022-10-18T12:34:24.928Z,998.6
2022-10-18T12:35:50.161Z,998.6
2022-10-18T12:37:15.110Z,998.6
2022-10-18T12:38:40.077Z,998.6
2022-10-18T12:40:10.458Z,998.6
2022-10-18T12:41:11.444Z,998.5
2022-10-18T12:42:17.839Z,998.5
2022-10-18T12:43:24.275Z,998.4
2022-10-18T12:44:30.699Z,998.4
2022-10-18T12:46:43.538Z,998.4
2022-10-18T12:47:49.966Z,998.4
2022-10-18T12:48:56.406Z,998.4
2022-10-18T12:50:02.838Z,998.4
2022-10-18T12:51:09.249Z,998.5
2022-10-18T12:52:15.682Z,998.5
2022-10-18T12:53:22.138Z,998.5
2022-10-18T12:54:28.525Z,998.5
2022-10-18T12:56:41.472Z,998.6
2022-10-18T12:58:06.365Z,998.6
2022-10-18T12:59:31.325Z,998.6
2022-10-18T13:01:14.820Z,998.7
2022-10-18T13:02:21.225Z,998.7
2022-10-18T13:03:46.154Z,998.7
2022-10-18T13:05:16.291Z,998.8
2022-10-18T13:06:36.059Z,998.8
2022-10-18T13:08:01.014Z,998.8
2022-10-18T13:09:25.963Z,998.8
2022-10-18T13:10:50.934Z,998.8
2022-10-18T13:12:15.859Z,998.8
2022-10-18T13:13:38.518Z,998.8
2022-10-18T13:14:28.702Z,998.8
2022-10-18T13:15:35.106Z,998.8
2022-10-18T13:17:47.966Z,998.8
2022-10-18T13:18:54.380Z,998.8
2022-10-18T13:20:20.865Z,998.7
2022-10-18T13:21:07.302Z,998.7
2022-10-18T13:22:13.749Z,998.7
2022-10-18T13:23:20.165Z,998.7
2022-10-18T13:25:32.996Z,998.8
2022-10-18T13:27:03.952Z,998.8
2022-10-18T13:28:22.914Z,998.8
2022-10-18T13:29:47.823Z,998.8
2022-10-18T13:31:12.831Z,998.8
2022-10-18T13:32:37.744Z,998.8
2022-10-18T13:34:02.689Z,998.8
2022-10-18T13:35:27.640Z,998.8
2022-10-18T13:37:11.104Z,998.8
2022-10-18T13:38:17.517Z,998.8
2022-10-18T13:39:42.488Z,998.8
2022-10-18T13:41:07.438Z,998.8
2022-10-18T13:42:32.627Z,998.8
2022-10-18T13:43:38.800Z,998.8
2022-10-18T13:44:45.239Z,998.8
2022-10-18T13:45:51.635Z,998.8
2022-10-18T13:46:58.057Z,998.7
2022-10-18T13:48:04.511Z,998.7
2022-10-18T13:49:10.911Z,998.7
2022-10-18T13:50:17.394Z,998.7
2022-10-18T13:51:23.755Z,998.7
2022-10-18T13:52:30.419Z,998.7
2022-10-18T13:53:36.605Z,998.7
2022-10-18T13:54:43.036Z,998.7
2022-10-18T13:55:50.878Z,998.7
2022-10-18T13:56:56.336Z,998.7
2022-10-18T13:58:02.743Z,998.6
2022-10-18T13:59:16.499Z,998.6
2022-10-18T14:00:15.617Z,998.6
2022-10-18T14:01:22.051Z,998.6
2022-10-18T14:02:49.662Z,998.6
2022-10-18T14:04:41.310Z,998.6
2022-10-18T14:05:47.716Z,998.6
2022-10-18T14:06:56.649Z,998.6
2022-10-18T14:08:00.603Z,998.6
2022-10-18T14:09:09.777Z,998.6
2022-10-18T14:10:13.419Z,998.6
2022-10-18T14:11:19.856Z,998.6
2022-10-18T14:12:26.284Z,998.6
2022-10-18T14:13:32.770Z,998.6
2022-10-18T14:14:39.236Z,998.6
2022-10-18T14:15:45.627Z,998.6
2022-10-18T14:16:52.046Z,998.6
2022-10-18T14:17:58.484Z,998.6
2022-10-18T14:19:04.900Z,998.6
2022-10-18T14:20:11.334Z,998.5
2022-10-18T14:21:21.181Z,998.5
2022-10-18T14:22:24.181Z,998.5
2022-10-18T14:23:30.602Z,998.5
2022-10-18T14:24:37.011Z,998.5
2022-10-18T14:25:43.470Z,998.5
2022-10-18T14:26:49.903Z,998.5
2022-10-18T14:27:56.307Z,998.5
2022-10-18T14:29:02.759Z,998.5
2022-10-18T14:30:09.197Z,998.5
2022-10-18T14:32:22.447Z,998.6
2022-10-18T14:33:28.851Z,998.6
2022-10-18T14:34:35.286Z,998.6
